Time;durP1;ratioP1;P1;durP2;ratioP2;P2;SDS_P1;SDS_P2;PMS_P1;PMS_P2;Temp;Humidity;BMP_temperature;BMP_pressure;BME280_temperature;BME280_humidity;BME280_pressure;Samples;Min_cycle;Max_cycle;Signal;HPM_P1;HPM_P2
2023/08/18 00:02:52;;;;;;;11.52;6.57;;;;;;;;;;6233523;22;20187;-93
2023/08/18 00:05:58;;;;;;;12.45;6.72;;;;;;;;;;6230563;23;20547;-89
2023/08/18 00:09:04;;;;;;;15.05;6.68;;;;;;;;;;6230753;23;20163;-93
2023/08/18 00:12:09;;;;;;;10.70;6.15;;;;;;;;;;6229654;23;20183;-92
2023/08/18 00:15:16;;;;;;;10.35;6.18;;;;;;;;;;6230401;23;20168;-94
2023/08/18 00:18:21;;;;;;;10.65;5.97;;;;;;;;;;6230003;23;20300;-91
2023/08/18 00:21:27;;;;;;;9.93;6.18;;;;;;;;;;6229950;23;20171;-93
2023/08/18 00:24:32;;;;;;;11.10;5.70;;;;;;;;;;6233075;23;20171;-93
2023/08/18 00:27:37;;;;;;;9.90;5.80;;;;;;;;;;6231032;23;20215;-92
2023/08/18 00:30:46;;;;;;;12.13;5.90;;;;;;;;;;6231210;22;20151;-91
2023/08/18 00:33:51;;;;;;;11.50;5.80;;;;;;;;;;6232495;23;20232;-94
2023/08/18 00:36:57;;;;;;;9.85;6.10;;;;;;;;;;6230855;23;20238;-91
2023/08/18 00:40:02;;;;;;;10.48;5.97;;;;;;;;;;6236775;22;20147;-96
2023/08/18 00:43:07;;;;;;;10.10;6.07;;;;;;;;;;6233707;23;20214;-94
2023/08/18 00:46:13;;;;;;;10.57;6.15;;;;;;;;;;6235875;22;20276;-93
2023/08/18 00:49:19;;;;;;;12.98;6.82;;;;;;;;;;6234530;23;20194;-93
2023/08/18 00:52:25;;;;;;;9.13;6.15;;;;;;;;;;6235040;23;20218;-92
2023/08/18 00:55:31;;;;;;;11.93;6.68;;;;;;;;;;6232923;23;20171;-93
2023/08/18 00:58:37;;;;;;;9.10;6.45;;;;;;;;;;6233419;23;20206;-93
2023/08/18 01:01:44;;;;;;;9.07;6.07;;;;;;;;;;6231411;22;20182;-94
2023/08/18 01:04:49;;;;;;;11.52;6.65;;;;;;;;;;6231114;23;20167;-94
2023/08/18 01:07:54;;;;;;;9.82;6.05;;;;;;;;;;6232120;23;20195;-95
2023/08/18 01:11:03;;;;;;;10.20;6.55;;;;;;;;;;6231022;23;20179;-95
2023/08/18 01:14:16;;;;;;;12.85;6.40;;;;;;;;;;6233026;22;20221;-94
2023/08/18 01:17:25;;;;;;;9.02;5.93;;;;;;;;;;6232506;23;20156;-94
2023/08/18 01:20:31;;;;;;;8.85;6.38;;;;;;;;;;6232032;23;20167;-92
2023/08/18 01:23:42;;;;;;;9.18;6.88;;;;;;;;;;6232380;23;20223;-94
2023/08/18 01:26:48;;;;;;;9.80;6.93;;;;;;;;;;6234352;22;20172;-94
2023/08/18 01:29:53;;;;;;;11.45;6.72;;;;;;;;;;6233500;23;20216;-93
2023/08/18 01:33:05;;;;;;;11.13;6.70;;;;;;;;;;6232721;23;20218;-93
2023/08/18 01:36:14;;;;;;;10.90;6.93;;;;;;;;;;6232672;22;20171;-94
2023/08/18 01:39:21;;;;;;;11.00;6.50;;;;;;;;;;6233469;23;20191;-94
2023/08/18 01:42:27;;;;;;;13.45;7.32;;;;;;;;;;6233970;23;20637;-95
2023/08/18 01:45:32;;;;;;;13.10;6.95;;;;;;;;;;6232497;23;20223;-94
2023/08/18 01:48:38;;;;;;;13.60;7.22;;;;;;;;;;6230761;23;20183;-93
2023/08/18 01:51:48;;;;;;;13.65;7.40;;;;;;;;;;6232528;22;20151;-93
2023/08/18 01:54:55;;;;;;;11.77;7.45;;;;;;;;;;6232105;23;20171;-94
2023/08/18 01:58:01;;;;;;;12.60;7.05;;;;;;;;;;6232412;22;20194;-94
2023/08/18 02:01:07;;;;;;;11.70;7.28;;;;;;;;;;6232516;23;20169;-94
2023/08/18 02:04:13;;;;;;;13.32;7.75;;;;;;;;;;6232047;23;20163;-94
2023/08/18 02:07:18;;;;;;;13.57;7.07;;;;;;;;;;6232802;23;20227;-94
2023/08/18 02:10:25;;;;;;;13.45;7.00;;;;;;;;;;6232446;22;20163;-91
2023/08/18 02:13:30;;;;;;;14.15;7.47;;;;;;;;;;6233288;22;20167;-92
2023/08/18 02:16:35;;;;;;;10.88;6.93;;;;;;;;;;6232665;23;20286;-92
2023/08/18 02:19:41;;;;;;;16.77;7.90;;;;;;;;;;6231584;22;20194;-93
2023/08/18 02:22:46;;;;;;;18.10;7.85;;;;;;;;;;6232465;23;20171;-93
2023/08/18 02:25:59;;;;;;;11.23;8.05;;;;;;;;;;6230729;23;20205;-94
2023/08/18 02:29:05;;;;;;;12.98;7.72;;;;;;;;;;6232467;22;20155;-94
2023/08/18 02:32:10;;;;;;;14.18;8.35;;;;;;;;;;6232900;23;20171;-94
2023/08/18 02:35:16;;;;;;;17.58;8.00;;;;;;;;;;6232424;23;20151;-93
2023/08/18 02:38:22;;;;;;;12.07;8.07;;;;;;;;;;6232578;23;20195;-92
2023/08/18 02:41:29;;;;;;;12.82;8.43;;;;;;;;;;6233403;23;20171;-94
2023/08/18 02:44:34;;;;;;;13.63;8.32;;;;;;;;;;6232825;23;20223;-94
2023/08/18 02:47:40;;;;;;;17.13;9.20;;;;;;;;;;6233151;22;20152;-93
2023/08/18 02:50:45;;;;;;;15.63;9.32;;;;;;;;;;6233214;23;20151;-93
2023/08/18 02:53:50;;;;;;;15.30;8.93;;;;;;;;;;6231798;23;20237;-94
2023/08/18 02:56:57;;;;;;;15.63;8.85;;;;;;;;;;6233873;22;20166;-93
2023/08/18 03:00:03;;;;;;;14.73;9.02;;;;;;;;;;6231749;22;20191;-94
2023/08/18 03:03:09;;;;;;;19.08;12.98;;;;;;;;;;6231456;23;20155;-96
2023/08/18 03:06:14;;;;;;;16.88;9.52;;;;;;;;;;6231277;23;20151;-94
2023/08/18 03:09:19;;;;;;;13.25;8.48;;;;;;;;;;6231566;23;20170;-93
2023/08/18 03:12:26;;;;;;;10.80;7.97;;;;;;;;;;6231860;22;20167;-93
2023/08/18 03:15:32;;;;;;;17.67;9.60;;;;;;;;;;6231545;23;20205;-93
2023/08/18 03:18:37;;;;;;;15.30;9.65;;;;;;;;;;6229349;23;20300;-93
2023/08/18 03:21:43;;;;;;;18.75;9.23;;;;;;;;;;6228591;23;20196;-91
2023/08/18 03:24:49;;;;;;;12.82;8.30;;;;;;;;;;6231031;22;20199;-94
2023/08/18 03:27:56;;;;;;;12.73;8.40;;;;;;;;;;6231401;23;20191;-94
2023/08/18 03:31:02;;;;;;;11.90;8.30;;;;;;;;;;6231073;22;20171;-93
2023/08/18 03:34:10;;;;;;;16.58;8.38;;;;;;;;;;6231338;23;20172;-93
2023/08/18 03:37:16;;;;;;;15.27;9.63;;;;;;;;;;6231880;23;20239;-94
2023/08/18 03:40:22;;;;;;;14.82;9.45;;;;;;;;;;6231646;22;20179;-93
2023/08/18 03:43:28;;;;;;;13.93;9.77;;;;;;;;;;6231463;23;20167;-93
2023/08/18 03:46:34;;;;;;;18.92;10.05;;;;;;;;;;6231455;23;20179;-93
2023/08/18 03:49:40;;;;;;;15.82;9.63;;;;;;;;;;6230676;23;20171;-92
2023/08/18 03:52:49;;;;;;;19.80;10.38;;;;;;;;;;6232118;23;20147;-94
2023/08/18 03:55:57;;;;;;;16.42;9.68;;;;;;;;;;6232308;23;20186;-93
2023/08/18 03:59:03;;;;;;;16.52;9.80;;;;;;;;;;6231533;22;20179;-93
2023/08/18 04:05:58;;;;;;;17.98;10.52;;;;;;;;;;6232753;23;20163;-94
2023/08/18 04:09:06;;;;;;;15.98;10.25;;;;;;;;;;6231625;23;20162;-94
2023/08/18 04:12:11;;;;;;;20.20;9.45;;;;;;;;;;6232769;23;20187;-92
2023/08/18 04:15:19;;;;;;;14.63;10.30;;;;;;;;;;6233944;23;20163;-93
2023/08/18 04:18:24;;;;;;;18.02;10.48;;;;;;;;;;6235747;23;20705;-93
2023/08/18 04:21:32;;;;;;;18.02;11.25;;;;;;;;;;6237703;23;20175;-94
2023/08/18 04:24:38;;;;;;;21.00;11.18;;;;;;;;;;6236982;23;20163;-92
2023/08/18 04:27:44;;;;;;;15.20;9.75;;;;;;;;;;6236553;23;20155;-93
2023/08/18 04:30:55;;;;;;;14.40;9.52;;;;;;;;;;6236595;23;20151;-93
2023/08/18 04:34:09;;;;;;;16.95;9.70;;;;;;;;;;6236406;23;20215;-95
2023/08/18 04:37:16;;;;;;;17.55;9.05;;;;;;;;;;6236494;23;20166;-92
2023/08/18 04:40:23;;;;;;;17.20;9.02;;;;;;;;;;6237487;23;20239;-91
2023/08/18 04:43:32;;;;;;;17.98;9.05;;;;;;;;;;6237421;22;20151;-94
2023/08/18 04:46:39;;;;;;;15.70;9.77;;;;;;;;;;6235159;23;20614;-89
2023/08/18 04:49:51;;;;;;;20.05;10.98;;;;;;;;;;6235004;23;20148;-94
2023/08/18 04:52:57;;;;;;;17.40;10.70;;;;;;;;;;6235605;23;20170;-94
2023/08/18 04:56:03;;;;;;;17.23;10.80;;;;;;;;;;6236891;23;20171;-93
2023/08/18 06:13:26;;;;;;;7.60;6.22;;;;;;;;;;6149576;22;20206;-92
2023/08/18 06:16:31;;;;;;;9.02;6.03;;;;;;;;;;6215363;23;20494;-92
2023/08/18 06:19:37;;;;;;;9.77;6.20;;;;;;;;;;6217861;23;20194;-91
2023/08/18 06:22:41;;;;;;;9.05;6.13;;;;;;;;;;6232039;23;20171;-90
2023/08/18 06:25:47;;;;;;;13.48;6.18;;;;;;;;;;6214512;23;20178;-91
2023/08/18 06:28:54;;;;;;;7.63;5.93;;;;;;;;;;6216331;23;20167;-91
2023/08/18 06:31:59;;;;;;;7.07;5.40;;;;;;;;;;6215109;23;20166;-93
2023/08/18 06:35:05;;;;;;;8.95;5.80;;;;;;;;;;6214882;23;20171;-90
2023/08/18 06:38:10;;;;;;;8.90;5.03;;;;;;;;;;6214259;23;20172;-91
2023/08/18 06:41:15;;;;;;;7.00;5.50;;;;;;;;;;6212161;23;20214;-90
2023/08/18 06:44:23;;;;;;;9.15;5.38;;;;;;;;;;6216178;23;20150;-91
2023/08/18 06:47:28;;;;;;;7.53;4.65;;;;;;;;;;6212288;23;20168;-90
2023/08/18 06:50:33;;;;;;;7.22;5.15;;;;;;;;;;6212200;23;20175;-92
2023/08/18 06:53:39;;;;;;;7.63;5.43;;;;;;;;;;6212379;23;20155;-90
2023/08/18 06:56:45;;;;;;;9.50;5.50;;;;;;;;;;6210158;23;20158;-91
2023/08/18 06:59:52;;;;;;;8.68;5.30;;;;;;;;;;6213066;23;20186;-90
2023/08/18 07:02:57;;;;;;;7.20;5.03;;;;;;;;;;6215431;23;20166;-93
2023/08/18 07:06:03;;;;;;;11.27;5.22;;;;;;;;;;6217713;23;20170;-91
2023/08/18 07:09:09;;;;;;;9.23;5.07;;;;;;;;;;6217092;23;20215;-90
2023/08/18 07:12:15;;;;;;;7.68;5.20;;;;;;;;;;6216388;23;20167;-90
2023/08/18 07:15:21;;;;;;;6.63;5.00;;;;;;;;;;6214101;23;20183;-91
2023/08/18 07:18:27;;;;;;;10.13;4.90;;;;;;;;;;6214741;23;20218;-92
2023/08/18 07:21:32;;;;;;;11.40;4.97;;;;;;;;;;6216465;23;20171;-92
2023/08/18 07:24:38;;;;;;;8.48;4.05;;;;;;;;;;6216294;23;20174;-93
2023/08/18 07:27:44;;;;;;;7.82;4.32;;;;;;;;;;6212801;23;20175;-90
2023/08/18 07:30:51;;;;;;;11.05;4.50;;;;;;;;;;6213600;23;20284;-93
2023/08/18 07:33:56;;;;;;;6.82;4.32;;;;;;;;;;6213466;23;20169;-92
2023/08/18 07:37:03;;;;;;;8.50;4.18;;;;;;;;;;6213507;23;20171;-90
2023/08/18 07:40:10;;;;;;;6.38;3.75;;;;;;;;;;6216460;23;20199;-90
2023/08/18 07:43:16;;;;;;;3.92;3.35;;;;;;;;;;6215926;23;20215;-88
2023/08/18 07:46:23;;;;;;;7.15;3.65;;;;;;;;;;6233804;23;20209;-93
2023/08/18 07:49:29;;;;;;;8.75;4.07;;;;;;;;;;6216247;23;20206;-90
2023/08/18 07:52:36;;;;;;;4.90;3.40;;;;;;;;;;6216672;23;20170;-91
2023/08/18 07:55:41;;;;;;;5.72;3.25;;;;;;;;;;6216970;23;20194;-92
2023/08/18 07:58:46;;;;;;;4.03;3.05;;;;;;;;;;6216847;23;20606;-89
2023/08/18 08:01:53;;;;;;;6.30;3.97;;;;;;;;;;6236534;23;20186;-93
2023/08/18 08:04:59;;;;;;;7.93;4.03;;;;;;;;;;6220153;23;20167;-92
2023/08/18 08:08:05;;;;;;;6.15;3.70;;;;;;;;;;6219133;23;20215;-91
2023/08/18 11:01:22;;;;;;;6.03;2.50;;;;;;;;;;6188664;22;20203;-92
2023/08/18 11:04:28;;;;;;;3.38;2.38;;;;;;;;;;6213380;23;20206;-91
2023/08/18 11:07:33;;;;;;;3.53;2.47;;;;;;;;;;6213705;23;20238;-91
2023/08/18 11:10:39;;;;;;;3.45;2.97;;;;;;;;;;6214784;23;20209;-92
2023/08/18 11:13:44;;;;;;;3.47;2.45;;;;;;;;;;6211728;23;20166;-93
2023/08/18 11:20:13;;;;;;;6.05;2.83;;;;;;;;;;6216983;23;20182;-93
2023/08/18 11:23:18;;;;;;;4.00;2.50;;;;;;;;;;6215281;23;20500;-92
2023/08/18 11:26:24;;;;;;;4.30;2.63;;;;;;;;;;6217799;23;20162;-93
2023/08/18 11:29:30;;;;;;;6.00;2.40;;;;;;;;;;6217597;23;20178;-89
2023/08/18 11:32:37;;;;;;;5.68;2.53;;;;;;;;;;6213875;23;20298;-91
2023/08/18 11:35:42;;;;;;;4.45;2.50;;;;;;;;;;6216456;23;20206;-92
2023/08/18 11:38:50;;;;;;;6.90;2.95;;;;;;;;;;6214325;23;20181;-90
2023/08/18 11:41:55;;;;;;;5.55;2.75;;;;;;;;;;6216473;23;20221;-91
2023/08/18 11:45:01;;;;;;;4.30;2.50;;;;;;;;;;6214754;23;20167;-89
2023/08/18 11:48:08;;;;;;;4.03;2.60;;;;;;;;;;6215097;23;20165;-90
2023/08/18 11:51:17;;;;;;;4.78;3.00;;;;;;;;;;6230533;23;20165;-89
2023/08/18 11:54:23;;;;;;;4.65;2.63;;;;;;;;;;6211158;23;20634;-92
2023/08/18 11:57:29;;;;;;;4.05;2.90;;;;;;;;;;6212603;23;20191;-90
2023/08/18 12:00:36;;;;;;;5.45;2.58;;;;;;;;;;6214405;23;20213;-91
2023/08/18 12:03:56;;;;;;;3.83;2.50;;;;;;;;;;6215130;23;20683;-89
2023/08/18 12:07:01;;;;;;;4.80;2.67;;;;;;;;;;6211688;23;20151;-90
2023/08/18 12:10:07;;;;;;;4.85;2.95;;;;;;;;;;6210723;23;20261;-91
2023/08/18 12:16:32;;;;;;;4.15;2.50;;;;;;;;;;6215124;23;20183;-92
2023/08/18 12:19:41;;;;;;;6.50;2.80;;;;;;;;;;6212295;23;20246;-90
2023/08/18 12:22:47;;;;;;;4.70;3.00;;;;;;;;;;6212345;23;20155;-91
2023/08/18 12:25:52;;;;;;;7.22;2.72;;;;;;;;;;6211724;23;20215;-91
2023/08/18 12:28:57;;;;;;;12.15;2.70;;;;;;;;;;6213036;23;20245;-92
2023/08/18 12:32:03;;;;;;;2.67;2.40;;;;;;;;;;6214548;23;20210;-91
2023/08/18 12:35:12;;;;;;;4.90;2.75;;;;;;;;;;6212395;23;20493;-93
2023/08/18 12:38:18;;;;;;;2.88;2.55;;;;;;;;;;6211519;23;20154;-90
2023/08/18 12:41:26;;;;;;;3.65;2.75;;;;;;;;;;6212444;23;20604;-92
2023/08/18 12:44:32;;;;;;;5.53;2.50;;;;;;;;;;6213556;23;20294;-91
2023/08/18 12:47:37;;;;;;;5.53;2.42;;;;;;;;;;6213226;23;20293;-91
2023/08/18 12:50:44;;;;;;;3.58;2.45;;;;;;;;;;6216989;23;20628;-93
2023/08/18 12:53:49;;;;;;;4.65;2.80;;;;;;;;;;6215127;23;20163;-92
2023/08/18 12:56:54;;;;;;;3.55;2.50;;;;;;;;;;6211163;23;20163;-92
2023/08/18 13:00:00;;;;;;;4.47;2.47;;;;;;;;;;6214718;23;20193;-92
2023/08/18 13:03:07;;;;;;;3.97;2.63;;;;;;;;;;6217029;23;20166;-93
2023/08/18 13:06:14;;;;;;;4.55;2.60;;;;;;;;;;6218486;23;20473;-94
2023/08/18 13:09:21;;;;;;;3.95;2.80;;;;;;;;;;6216865;23;20163;-93
2023/08/18 13:12:27;;;;;;;3.25;2.22;;;;;;;;;;6217087;23;20214;-93
2023/08/18 13:15:32;;;;;;;3.72;2.50;;;;;;;;;;6215777;23;20243;-94
2023/08/18 13:18:37;;;;;;;3.85;2.58;;;;;;;;;;6217443;23;20159;-94
2023/08/18 13:21:44;;;;;;;5.15;2.90;;;;;;;;;;6217689;23;20193;-92
2023/08/18 13:24:50;;;;;;;4.53;2.60;;;;;;;;;;6218112;23;20225;-92
2023/08/18 13:27:55;;;;;;;4.57;2.40;;;;;;;;;;6218283;23;20167;-94
2023/08/18 13:31:03;;;;;;;3.28;2.40;;;;;;;;;;6216851;23;20170;-91
2023/08/18 13:34:09;;;;;;;4.10;2.45;;;;;;;;;;6217788;23;20166;-93
2023/08/18 13:37:16;;;;;;;4.18;2.58;;;;;;;;;;6217096;23;20218;-92
2023/08/18 13:40:23;;;;;;;6.75;2.85;;;;;;;;;;6218325;23;20238;-93
2023/08/18 13:43:29;;;;;;;6.38;2.42;;;;;;;;;;6218206;23;20210;-94
2023/08/18 13:46:35;;;;;;;4.07;2.60;;;;;;;;;;6218630;23;20170;-92
2023/08/18 13:49:41;;;;;;;5.30;2.40;;;;;;;;;;6218556;23;20621;-94
2023/08/18 13:52:48;;;;;;;6.68;2.70;;;;;;;;;;6202574;23;20210;-93
2023/08/18 13:55:55;;;;;;;5.22;2.60;;;;;;;;;;6218061;23;20171;-92
2023/08/18 13:59:01;;;;;;;3.75;2.45;;;;;;;;;;6217211;23;20154;-92
2023/08/18 14:02:06;;;;;;;5.35;2.88;;;;;;;;;;6229928;23;20698;-91
2023/08/18 14:05:15;;;;;;;6.97;3.38;;;;;;;;;;6236596;23;20170;-94
2023/08/18 14:08:31;;;;;;;5.05;3.15;;;;;;;;;;6236918;23;20178;-93
2023/08/18 14:11:36;;;;;;;6.65;2.80;;;;;;;;;;6235213;23;20198;-94
2023/08/18 14:14:43;;;;;;;7.15;3.15;;;;;;;;;;6235516;23;20191;-94
2023/08/18 14:17:49;;;;;;;5.45;2.85;;;;;;;;;;6236014;23;20167;-91
2023/08/18 14:20:54;;;;;;;6.75;3.22;;;;;;;;;;6236376;23;20198;-93
2023/08/18 14:24:02;;;;;;;12.77;5.22;;;;;;;;;;6217888;23;20166;-92
2023/08/18 14:27:08;;;;;;;7.05;3.13;;;;;;;;;;6234134;23;20245;-93
2023/08/18 14:30:14;;;;;;;3.58;2.83;;;;;;;;;;6233018;23;20213;-93
2023/08/18 14:33:19;;;;;;;4.50;2.92;;;;;;;;;;6234157;23;20147;-92
2023/08/18 14:36:25;;;;;;;5.13;2.72;;;;;;;;;;6234565;23;20585;-92
2023/08/18 14:39:33;;;;;;;5.70;3.30;;;;;;;;;;6232516;23;20217;-91
2023/08/18 14:42:43;;;;;;;5.00;2.97;;;;;;;;;;6234862;23;20167;-92
2023/08/18 14:45:51;;;;;;;5.53;3.22;;;;;;;;;;6233903;23;20211;-92
2023/08/18 14:48:56;;;;;;;5.03;2.75;;;;;;;;;;6232567;23;20166;-91
2023/08/18 14:52:04;;;;;;;7.05;3.63;;;;;;;;;;6234855;23;20171;-91
2023/08/18 14:55:11;;;;;;;11.27;4.30;;;;;;;;;;6232518;23;20215;-92
2023/08/18 14:58:17;;;;;;;7.05;3.35;;;;;;;;;;6232404;23;20170;-93
2023/08/18 15:01:22;;;;;;;7.97;3.72;;;;;;;;;;6234532;23;20232;-93
2023/08/18 15:04:29;;;;;;;5.38;3.53;;;;;;;;;;6235495;23;20171;-94
2023/08/18 15:07:34;;;;;;;10.10;4.15;;;;;;;;;;6232885;23;20158;-91
2023/08/18 15:10:42;;;;;;;7.50;3.42;;;;;;;;;;6235129;23;20174;-92
2023/08/18 15:13:51;;;;;;;6.43;3.80;;;;;;;;;;6234886;23;20170;-91
2023/08/18 15:16:57;;;;;;;8.52;3.45;;;;;;;;;;6234208;23;20166;-94
2023/08/18 15:20:05;;;;;;;4.15;3.25;;;;;;;;;;6235217;23;20163;-92
2023/08/18 15:23:10;;;;;;;8.38;3.58;;;;;;;;;;6233020;23;20175;-91
2023/08/18 15:26:19;;;;;;;4.03;3.38;;;;;;;;;;6234719;23;20263;-94
2023/08/18 15:29:24;;;;;;;5.90;3.50;;;;;;;;;;6234209;23;20163;-94
2023/08/18 15:32:31;;;;;;;5.47;4.00;;;;;;;;;;6234366;23;20167;-94
2023/08/18 15:35:36;;;;;;;9.77;4.47;;;;;;;;;;6235648;23;20165;-94
2023/08/18 15:38:41;;;;;;;6.93;3.53;;;;;;;;;;6236078;23;20188;-91
2023/08/18 15:41:49;;;;;;;6.70;3.55;;;;;;;;;;6236050;23;20431;-94
2023/08/18 15:44:55;;;;;;;5.15;3.20;;;;;;;;;;6233839;23;20167;-93
2023/08/18 15:48:01;;;;;;;6.18;3.60;;;;;;;;;;6233933;23;20163;-93
2023/08/18 15:51:06;;;;;;;7.30;4.22;;;;;;;;;;6232769;23;20679;-93
2023/08/18 15:54:12;;;;;;;6.72;3.83;;;;;;;;;;6234431;23;20204;-93
2023/08/18 15:57:20;;;;;;;7.97;4.13;;;;;;;;;;6234652;23;20175;-93
2023/08/18 16:00:26;;;;;;;6.20;3.95;;;;;;;;;;6235801;23;20234;-91
2023/08/18 16:03:31;;;;;;;7.78;4.18;;;;;;;;;;6218005;23;20182;-92
2023/08/18 16:06:37;;;;;;;7.82;3.88;;;;;;;;;;6216982;23;20171;-93
2023/08/18 16:09:43;;;;;;;7.22;5.47;;;;;;;;;;6216216;23;20155;-92
2023/08/18 16:12:50;;;;;;;6.35;3.60;;;;;;;;;;6217056;23;20222;-93
2023/08/18 16:15:56;;;;;;;7.47;4.00;;;;;;;;;;6218598;23;20163;-91
2023/08/18 16:19:05;;;;;;;8.77;5.45;;;;;;;;;;6218410;23;20618;-93
2023/08/18 16:22:11;;;;;;;7.70;4.82;;;;;;;;;;6218032;23;20179;-93
2023/08/18 16:25:16;;;;;;;10.30;4.00;;;;;;;;;;6218265;23;20171;-93
2023/08/18 16:28:24;;;;;;;5.15;3.78;;;;;;;;;;6218662;23;20155;-94
2023/08/18 16:31:30;;;;;;;5.30;3.80;;;;;;;;;;6218511;23;20220;-92
2023/08/18 16:34:36;;;;;;;10.15;3.80;;;;;;;;;;6217801;23;20171;-93
2023/08/18 16:37:45;;;;;;;4.53;3.75;;;;;;;;;;6218064;23;20154;-90
2023/08/18 16:40:51;;;;;;;5.57;3.90;;;;;;;;;;6217992;23;20238;-93
2023/08/18 16:43:59;;;;;;;6.40;4.05;;;;;;;;;;6217337;23;20163;-93
2023/08/18 16:47:05;;;;;;;9.88;8.25;;;;;;;;;;6218250;23;20216;-91
2023/08/18 16:50:10;;;;;;;6.47;4.05;;;;;;;;;;6217743;23;20168;-91
2023/08/18 16:53:17;;;;;;;6.18;3.85;;;;;;;;;;6218861;23;20151;-93
2023/08/18 16:56:23;;;;;;;7.43;4.32;;;;;;;;;;6217914;23;20168;-95
2023/08/18 16:59:32;;;;;;;7.50;4.68;;;;;;;;;;6217474;23;20171;-93
2023/08/18 17:02:38;;;;;;;4.30;3.78;;;;;;;;;;6218016;23;20673;-92
2023/08/18 17:05:46;;;;;;;9.73;4.22;;;;;;;;;;6217943;23;20235;-91
2023/08/18 17:48:00;;;;;;;5.95;4.53;;;;;;;;;;6121032;23;20184;-91
2023/08/18 17:51:06;;;;;;;9.60;4.50;;;;;;;;;;6187612;23;20164;-94
2023/08/18 17:54:12;;;;;;;7.30;4.20;;;;;;;;;;6205184;23;20172;-92
2023/08/18 17:57:17;;;;;;;6.63;4.05;;;;;;;;;;6188029;23;20171;-92
2023/08/18 18:00:23;;;;;;;5.32;4.10;;;;;;;;;;6204932;23;20172;-93
2023/08/18 18:03:30;;;;;;;5.25;4.13;;;;;;;;;;6206261;23;20199;-92
2023/08/18 18:06:35;;;;;;;10.95;4.70;;;;;;;;;;6205659;23;20273;-91
2023/08/18 18:09:40;;;;;;;6.60;4.78;;;;;;;;;;6205404;23;20176;-92
2023/08/18 18:12:45;;;;;;;9.98;5.10;;;;;;;;;;6205159;23;20176;-92
2023/08/18 18:15:51;;;;;;;10.10;5.38;;;;;;;;;;6188027;23;20171;-91
2023/08/18 18:19:01;;;;;;;10.85;5.60;;;;;;;;;;6191007;23;20164;-92
2023/08/18 18:22:07;;;;;;;8.75;5.13;;;;;;;;;;6186265;23;20231;-92
2023/08/18 18:25:12;;;;;;;11.00;4.90;;;;;;;;;;6203511;23;20148;-91
2023/08/18 18:28:19;;;;;;;7.68;5.50;;;;;;;;;;6207191;23;20192;-90
2023/08/18 18:31:28;;;;;;;14.13;6.07;;;;;;;;;;6207110;23;20163;-91
2023/08/18 18:34:36;;;;;;;13.98;7.03;;;;;;;;;;6203488;23;20217;-92
2023/08/18 18:37:42;;;;;;;10.90;6.60;;;;;;;;;;6204075;23;20148;-91
2023/08/18 18:40:48;;;;;;;14.38;6.43;;;;;;;;;;6204582;23;20168;-92
2023/08/18 18:43:54;;;;;;;13.10;6.60;;;;;;;;;;6204403;23;20155;-92
2023/08/18 18:47:00;;;;;;;14.52;6.55;;;;;;;;;;6185965;23;20164;-92
2023/08/18 18:50:09;;;;;;;12.88;6.13;;;;;;;;;;6216185;23;20187;-91
2023/08/18 18:53:14;;;;;;;10.73;6.07;;;;;;;;;;6201242;23;20168;-92
2023/08/18 18:56:19;;;;;;;9.75;6.35;;;;;;;;;;6217364;23;20647;-92
2023/08/18 18:59:24;;;;;;;9.68;5.80;;;;;;;;;;6199999;23;20245;-92
2023/08/18 19:02:33;;;;;;;10.88;6.38;;;;;;;;;;6200518;23;20298;-92
2023/08/18 19:05:42;;;;;;;11.85;6.05;;;;;;;;;;6200276;23;20171;-91
2023/08/18 19:08:48;;;;;;;9.50;6.63;;;;;;;;;;6218179;23;20241;-91
2023/08/18 19:11:54;;;;;;;11.93;6.68;;;;;;;;;;6200966;23;20221;-91
2023/08/18 19:15:01;;;;;;;9.52;5.65;;;;;;;;;;6202540;23;20152;-92
2023/08/18 19:18:07;;;;;;;12.35;6.68;;;;;;;;;;6221306;23;20155;-92
2023/08/18 19:21:14;;;;;;;13.48;7.20;;;;;;;;;;6204022;23;20171;-92
2023/08/18 19:24:20;;;;;;;11.52;6.45;;;;;;;;;;6203529;23;20183;-91
2023/08/18 19:27:26;;;;;;;13.18;6.68;;;;;;;;;;6220830;23;20172;-92
2023/08/18 19:30:34;;;;;;;16.63;7.50;;;;;;;;;;6204505;23;20167;-92
2023/08/18 19:33:40;;;;;;;10.15;6.38;;;;;;;;;;6223621;23;20176;-92
2023/08/18 19:36:47;;;;;;;10.43;6.38;;;;;;;;;;6223083;23;20192;-91
2023/08/18 19:39:53;;;;;;;10.13;6.30;;;;;;;;;;6205160;23;20196;-91
2023/08/18 19:42:58;;;;;;;14.32;7.70;;;;;;;;;;6204673;23;20195;-91
2023/08/18 19:46:04;;;;;;;12.15;6.68;;;;;;;;;;6221176;23;20157;-93
2023/08/18 19:49:09;;;;;;;9.77;7.28;;;;;;;;;;6224146;23;20191;-93
2023/08/18 19:52:18;;;;;;;12.85;7.60;;;;;;;;;;6206468;23;20221;-92
2023/08/18 19:55:23;;;;;;;12.82;6.50;;;;;;;;;;6223226;23;20224;-92
2023/08/18 19:58:29;;;;;;;12.10;6.47;;;;;;;;;;6206101;23;20211;-91
2023/08/18 20:01:35;;;;;;;14.38;6.95;;;;;;;;;;6223832;23;20243;-91
2023/08/18 20:04:42;;;;;;;12.30;7.47;;;;;;;;;;6224355;23;20160;-93
2023/08/18 20:07:50;;;;;;;13.60;6.80;;;;;;;;;;6223828;23;20546;-91
2023/08/18 20:10:56;;;;;;;10.10;6.90;;;;;;;;;;6222510;23;20207;-91
2023/08/18 20:14:02;;;;;;;19.27;11.50;;;;;;;;;;6207117;23;20650;-91
2023/08/18 20:17:08;;;;;;;12.02;7.00;;;;;;;;;;6206083;23;20164;-92
2023/08/18 20:20:14;;;;;;;10.05;7.07;;;;;;;;;;6224174;23;20241;-91
2023/08/18 20:23:21;;;;;;;13.80;6.57;;;;;;;;;;6223970;23;20199;-91
2023/08/18 20:26:31;;;;;;;10.90;6.85;;;;;;;;;;6224439;23;20207;-92
2023/08/18 20:29:37;;;;;;;9.45;6.63;;;;;;;;;;6207974;23;20166;-92
2023/08/18 20:32:43;;;;;;;13.43;7.05;;;;;;;;;;6205347;23;20239;-91
2023/08/18 20:35:49;;;;;;;10.65;7.03;;;;;;;;;;6205659;23;20155;-91
2023/08/18 20:38:56;;;;;;;13.35;7.43;;;;;;;;;;6206624;23;20242;-91
2023/08/18 20:45:22;;;;;;;15.00;7.38;;;;;;;;;;6205869;23;20669;-91
2023/08/18 20:48:29;;;;;;;9.55;7.10;;;;;;;;;;6223725;23;20219;-91
2023/08/18 20:51:34;;;;;;;9.85;7.20;;;;;;;;;;6189259;23;20219;-90
2023/08/18 20:54:44;;;;;;;10.80;7.40;;;;;;;;;;6191478;23;20187;-92
2023/08/18 20:57:50;;;;;;;16.13;7.45;;;;;;;;;;6190452;23;20160;-92
2023/08/18 21:00:56;;;;;;;12.38;7.35;;;;;;;;;;6207820;23;20187;-91
2023/08/18 21:04:02;;;;;;;14.80;7.35;;;;;;;;;;6188745;23;20192;-92
2023/08/18 21:07:10;;;;;;;13.60;7.53;;;;;;;;;;6188818;23;20203;-91
2023/08/18 21:10:18;;;;;;;19.67;8.43;;;;;;;;;;6188163;23;20155;-92
2023/08/18 21:13:23;;;;;;;19.42;8.35;;;;;;;;;;6205833;23;20176;-92
2023/08/18 21:16:29;;;;;;;11.32;7.80;;;;;;;;;;6187131;23;20168;-91
2023/08/18 21:19:34;;;;;;;9.68;7.32;;;;;;;;;;6185359;23;20168;-93
2023/08/18 21:22:44;;;;;;;23.73;8.45;;;;;;;;;;6186231;23;20203;-92
2023/08/18 21:25:52;;;;;;;13.02;8.05;;;;;;;;;;6188262;23;20168;-92
2023/08/18 21:28:58;;;;;;;14.93;7.82;;;;;;;;;;6188804;23;20213;-91
2023/08/18 21:32:03;;;;;;;17.15;8.15;;;;;;;;;;6204851;23;20176;-89
2023/08/18 21:35:10;;;;;;;13.18;7.90;;;;;;;;;;6188111;23;20187;-94
2023/08/18 21:38:16;;;;;;;12.30;7.97;;;;;;;;;;6186537;23;20176;-94
2023/08/18 21:41:24;;;;;;;17.60;7.75;;;;;;;;;;6186431;23;20175;-92
2023/08/18 21:44:29;;;;;;;16.35;8.25;;;;;;;;;;6186820;23;20207;-92
2023/08/18 21:47:34;;;;;;;11.73;7.80;;;;;;;;;;6185784;23;20164;-92
2023/08/18 21:50:42;;;;;;;17.80;9.13;;;;;;;;;;6185838;23;20172;-92
2023/08/18 21:53:49;;;;;;;15.85;8.50;;;;;;;;;;6185880;23;20167;-93
2023/08/18 21:56:55;;;;;;;11.88;7.65;;;;;;;;;;6183798;23;20215;-94
2023/08/18 22:00:01;;;;;;;23.52;8.30;;;;;;;;;;6184438;23;20152;-93
2023/08/18 22:03:07;;;;;;;12.55;7.50;;;;;;;;;;6185148;23;20223;-92
2023/08/18 22:06:14;;;;;;;15.43;8.15;;;;;;;;;;6184982;23;20173;-92
2023/08/18 22:09:20;;;;;;;13.23;7.45;;;;;;;;;;6184929;23;20208;-91
2023/08/18 22:12:27;;;;;;;12.85;8.32;;;;;;;;;;6185365;23;20172;-94
2023/08/18 22:15:32;;;;;;;16.45;8.35;;;;;;;;;;6186319;23;20170;-93
2023/08/18 22:18:37;;;;;;;15.50;8.52;;;;;;;;;;6185550;23;20183;-93
2023/08/18 22:21:43;;;;;;;12.18;7.90;;;;;;;;;;6183669;23;20204;-93
2023/08/18 22:24:49;;;;;;;14.55;7.85;;;;;;;;;;6184509;23;20217;-93
2023/08/18 22:27:56;;;;;;;14.25;8.15;;;;;;;;;;6185104;23;20188;-92
2023/08/18 22:31:02;;;;;;;13.43;7.88;;;;;;;;;;6184781;23;20172;-91
2023/08/18 22:34:07;;;;;;;15.25;8.23;;;;;;;;;;6184863;23;20539;-91
2023/08/18 22:37:12;;;;;;;10.63;7.70;;;;;;;;;;6182949;23;20163;-91
2023/08/18 22:40:18;;;;;;;15.93;8.55;;;;;;;;;;6184270;23;20183;-93
2023/08/18 22:43:24;;;;;;;16.52;7.72;;;;;;;;;;6184922;23;20190;-93
2023/08/18 22:46:29;;;;;;;12.23;7.50;;;;;;;;;;6185361;23;20167;-92
2023/08/18 22:49:34;;;;;;;14.90;7.85;;;;;;;;;;6186010;23;20191;-93
2023/08/18 22:52:40;;;;;;;12.52;7.78;;;;;;;;;;6182290;23;20507;-91
2023/08/18 22:55:47;;;;;;;15.15;7.70;;;;;;;;;;6166692;23;20203;-93
2023/08/18 22:58:54;;;;;;;12.05;7.85;;;;;;;;;;6183558;23;20175;-92
2023/08/18 23:01:59;;;;;;;14.73;8.07;;;;;;;;;;6183675;23;20246;-92
2023/08/18 23:05:05;;;;;;;12.43;8.73;;;;;;;;;;6184555;23;20526;-93
2023/08/18 23:08:10;;;;;;;11.38;7.80;;;;;;;;;;6183849;23;20168;-93
2023/08/18 23:11:16;;;;;;;11.82;7.90;;;;;;;;;;6185162;23;20147;-92
2023/08/18 23:14:23;;;;;;;13.95;7.95;;;;;;;;;;6184677;23;20220;-93
2023/08/18 23:17:30;;;;;;;13.02;8.02;;;;;;;;;;6185691;23;20241;-93
2023/08/18 23:20:36;;;;;;;14.02;7.68;;;;;;;;;;6185405;23;20179;-91
2023/08/18 23:23:42;;;;;;;18.35;7.93;;;;;;;;;;6184935;23;20208;-91
2023/08/18 23:26:47;;;;;;;19.25;8.32;;;;;;;;;;6183747;23;20251;-91